sensor_id;sensor_type;location;lat;lon;timestamp;P1;durP1;ratioP1;P2;durP2;ratioP2
81036;SDS011;70521;47.468;19.306;2023-09-08T00:00:48;5.20;;;4.80;;
81036;SDS011;70521;47.468;19.306;2023-09-08T00:03:50;5.45;;;4.95;;
81036;SDS011;70521;47.468;19.306;2023-09-08T00:06:51;7.45;;;5.60;;
81036;SDS011;70521;47.468;19.306;2023-09-08T00:09:52;5.38;;;4.88;;
81036;SDS011;70521;47.468;19.306;2023-09-08T00:12:53;5.63;;;5.10;;
81036;SDS011;70521;47.468;19.306;2023-09-08T00:15:54;5.93;;;5.32;;
81036;SDS011;70521;47.468;19.306;2023-09-08T00:18:55;5.97;;;5.22;;
81036;SDS011;70521;47.468;19.306;2023-09-08T00:21:56;6.85;;;4.95;;
81036;SDS011;70521;47.468;19.306;2023-09-08T00:24:57;5.70;;;5.18;;
81036;SDS011;70521;47.468;19.306;2023-09-08T00:27:58;5.65;;;5.15;;
81036;SDS011;70521;47.468;19.306;2023-09-08T00:30:59;5.55;;;5.05;;
81036;SDS011;70521;47.468;19.306;2023-09-08T00:34:03;5.63;;;5.13;;
81036;SDS011;70521;47.468;19.306;2023-09-08T00:37:04;5.90;;;4.95;;
81036;SDS011;70521;47.468;19.306;2023-09-08T00:40:08;6.28;;;5.68;;
81036;SDS011;70521;47.468;19.306;2023-09-08T00:43:09;6.35;;;5.78;;
81036;SDS011;70521;47.468;19.306;2023-09-08T00:46:10;7.13;;;6.43;;
81036;SDS011;70521;47.468;19.306;2023-09-08T00:49:12;6.95;;;5.85;;
81036;SDS011;70521;47.468;19.306;2023-09-08T00:52:14;6.78;;;6.00;;
81036;SDS011;70521;47.468;19.306;2023-09-08T00:55:15;6.53;;;5.93;;
81036;SDS011;70521;47.468;19.306;2023-09-08T00:58:16;6.13;;;5.63;;
81036;SDS011;70521;47.468;19.306;2023-09-08T01:01:17;8.02;;;7.32;;
81036;SDS011;70521;47.468;19.306;2023-09-08T01:04:20;7.18;;;6.47;;
81036;SDS011;70521;47.468;19.306;2023-09-08T01:07:21;6.63;;;6.03;;
81036;SDS011;70521;47.468;19.306;2023-09-08T01:10:22;8.45;;;6.47;;
81036;SDS011;70521;47.468;19.306;2023-09-08T01:13:23;6.55;;;5.95;;
81036;SDS011;70521;47.468;19.306;2023-09-08T01:16:24;7.22;;;5.78;;
81036;SDS011;70521;47.468;19.306;2023-09-08T01:19:25;7.57;;;6.95;;
81036;SDS011;70521;47.468;19.306;2023-09-08T01:25:59;5.85;;;5.35;;
81036;SDS011;70521;47.468;19.306;2023-09-08T01:29:04;6.80;;;6.18;;
81036;SDS011;70521;47.468;19.306;2023-09-08T01:32:07;6.20;;;5.65;;
81036;SDS011;70521;47.468;19.306;2023-09-08T01:35:09;6.55;;;5.88;;
81036;SDS011;70521;47.468;19.306;2023-09-08T01:38:10;7.35;;;6.65;;
81036;SDS011;70521;47.468;19.306;2023-09-08T01:41:11;7.07;;;6.10;;
81036;SDS011;70521;47.468;19.306;2023-09-08T01:44:13;14.70;;;6.63;;
81036;SDS011;70521;47.468;19.306;2023-09-08T01:47:15;6.57;;;5.88;;
81036;SDS011;70521;47.468;19.306;2023-09-08T01:50:16;6.78;;;6.28;;
81036;SDS011;70521;47.468;19.306;2023-09-08T01:56:23;6.13;;;5.47;;
81036;SDS011;70521;47.468;19.306;2023-09-08T01:59:24;7.45;;;6.65;;
81036;SDS011;70521;47.468;19.306;2023-09-08T02:02:25;7.35;;;6.75;;
81036;SDS011;70521;47.468;19.306;2023-09-08T02:05:26;6.30;;;5.70;;
81036;SDS011;70521;47.468;19.306;2023-09-08T02:08:27;8.13;;;7.38;;
81036;SDS011;70521;47.468;19.306;2023-09-08T02:11:28;7.13;;;6.53;;
81036;SDS011;70521;47.468;19.306;2023-09-08T02:14:29;7.63;;;5.68;;
81036;SDS011;70521;47.468;19.306;2023-09-08T02:17:30;7.60;;;6.90;;
81036;SDS011;70521;47.468;19.306;2023-09-08T02:20:31;6.28;;;5.78;;
81036;SDS011;70521;47.468;19.306;2023-09-08T02:23:32;7.70;;;6.90;;
81036;SDS011;70521;47.468;19.306;2023-09-08T02:26:33;7.55;;;6.65;;
81036;SDS011;70521;47.468;19.306;2023-09-08T02:29:35;11.10;;;5.88;;
81036;SDS011;70521;47.468;19.306;2023-09-08T02:32:36;6.68;;;6.07;;
81036;SDS011;70521;47.468;19.306;2023-09-08T02:35:39;7.50;;;6.72;;
81036;SDS011;70521;47.468;19.306;2023-09-08T02:38:40;7.13;;;6.50;;
81036;SDS011;70521;47.468;19.306;2023-09-08T02:41:43;7.45;;;6.75;;
81036;SDS011;70521;47.468;19.306;2023-09-08T02:44:44;7.22;;;6.65;;
81036;SDS011;70521;47.468;19.306;2023-09-08T02:47:45;7.97;;;7.20;;
81036;SDS011;70521;47.468;19.306;2023-09-08T02:50:46;6.95;;;6.35;;
81036;SDS011;70521;47.468;19.306;2023-09-08T02:53:47;7.80;;;7.10;;
81036;SDS011;70521;47.468;19.306;2023-09-08T02:56:48;7.75;;;6.95;;
81036;SDS011;70521;47.468;19.306;2023-09-08T02:59:49;8.57;;;7.43;;
81036;SDS011;70521;47.468;19.306;2023-09-08T03:02:51;7.63;;;6.82;;
81036;SDS011;70521;47.468;19.306;2023-09-08T03:05:56;7.85;;;7.07;;
81036;SDS011;70521;47.468;19.306;2023-09-08T03:08:59;7.15;;;6.55;;
81036;SDS011;70521;47.468;19.306;2023-09-08T03:12:00;9.70;;;7.88;;
81036;SDS011;70521;47.468;19.306;2023-09-08T03:15:03;8.32;;;7.63;;
81036;SDS011;70521;47.468;19.306;2023-09-08T03:18:05;7.75;;;6.63;;
81036;SDS011;70521;47.468;19.306;2023-09-08T03:21:06;8.18;;;7.47;;
81036;SDS011;70521;47.468;19.306;2023-09-08T03:24:11;7.47;;;6.88;;
81036;SDS011;70521;47.468;19.306;2023-09-08T03:27:12;8.20;;;7.45;;
81036;SDS011;70521;47.468;19.306;2023-09-08T03:30:13;7.68;;;7.03;;
81036;SDS011;70521;47.468;19.306;2023-09-08T03:33:14;11.25;;;7.88;;
81036;SDS011;70521;47.468;19.306;2023-09-08T03:36:15;8.30;;;7.63;;
81036;SDS011;70521;47.468;19.306;2023-09-08T03:39:18;8.95;;;8.15;;
81036;SDS011;70521;47.468;19.306;2023-09-08T03:42:20;8.00;;;7.20;;
81036;SDS011;70521;47.468;19.306;2023-09-08T03:45:21;9.00;;;7.93;;
81036;SDS011;70521;47.468;19.306;2023-09-08T03:48:23;7.47;;;6.78;;
81036;SDS011;70521;47.468;19.306;2023-09-08T03:51:24;11.25;;;10.45;;
81036;SDS011;70521;47.468;19.306;2023-09-08T03:54:25;8.70;;;7.80;;
81036;SDS011;70521;47.468;19.306;2023-09-08T03:57:26;8.02;;;7.25;;
81036;SDS011;70521;47.468;19.306;2023-09-08T04:00:27;8.82;;;7.80;;
81036;SDS011;70521;47.468;19.306;2023-09-08T04:03:29;7.20;;;6.60;;
81036;SDS011;70521;47.468;19.306;2023-09-08T04:06:30;8.57;;;7.80;;
81036;SDS011;70521;47.468;19.306;2023-09-08T04:09:31;8.13;;;7.20;;
81036;SDS011;70521;47.468;19.306;2023-09-08T04:12:32;7.72;;;6.93;;
81036;SDS011;70521;47.468;19.306;2023-09-08T04:15:33;8.75;;;7.72;;
81036;SDS011;70521;47.468;19.306;2023-09-08T04:18:34;8.45;;;7.57;;
81036;SDS011;70521;47.468;19.306;2023-09-08T04:21:35;10.27;;;9.40;;
81036;SDS011;70521;47.468;19.306;2023-09-08T04:24:37;8.05;;;7.38;;
81036;SDS011;70521;47.468;19.306;2023-09-08T04:27:38;8.20;;;7.15;;
81036;SDS011;70521;47.468;19.306;2023-09-08T04:30:40;9.05;;;8.25;;
81036;SDS011;70521;47.468;19.306;2023-09-08T04:33:41;9.02;;;8.00;;
81036;SDS011;70521;47.468;19.306;2023-09-08T04:36:42;9.23;;;8.40;;
81036;SDS011;70521;47.468;19.306;2023-09-08T04:39:43;9.52;;;8.52;;
81036;SDS011;70521;47.468;19.306;2023-09-08T04:42:44;8.50;;;7.70;;
81036;SDS011;70521;47.468;19.306;2023-09-08T04:45:46;9.35;;;8.45;;
81036;SDS011;70521;47.468;19.306;2023-09-08T04:48:47;10.90;;;7.88;;
81036;SDS011;70521;47.468;19.306;2023-09-08T04:51:48;8.57;;;7.55;;
81036;SDS011;70521;47.468;19.306;2023-09-08T04:54:52;8.27;;;7.43;;
81036;SDS011;70521;47.468;19.306;2023-09-08T04:57:54;10.82;;;9.85;;
81036;SDS011;70521;47.468;19.306;2023-09-08T05:00:55;9.13;;;8.25;;
81036;SDS011;70521;47.468;19.306;2023-09-08T05:03:56;9.73;;;7.63;;
81036;SDS011;70521;47.468;19.306;2023-09-08T05:06:57;8.38;;;7.68;;
81036;SDS011;70521;47.468;19.306;2023-09-08T05:09:59;8.02;;;7.43;;
81036;SDS011;70521;47.468;19.306;2023-09-08T05:13:04;8.98;;;8.30;;
81036;SDS011;70521;47.468;19.306;2023-09-08T05:16:05;8.43;;;7.70;;
81036;SDS011;70521;47.468;19.306;2023-09-08T05:19:14;7.97;;;7.28;;
81036;SDS011;70521;47.468;19.306;2023-09-08T05:22:16;8.05;;;7.18;;
81036;SDS011;70521;47.468;19.306;2023-09-08T05:25:17;7.82;;;7.13;;
81036;SDS011;70521;47.468;19.306;2023-09-08T05:28:19;8.20;;;7.45;;
81036;SDS011;70521;47.468;19.306;2023-09-08T05:31:20;7.85;;;7.07;;
81036;SDS011;70521;47.468;19.306;2023-09-08T05:34:21;8.75;;;7.85;;
81036;SDS011;70521;47.468;19.306;2023-09-08T05:37:22;8.40;;;7.60;;
81036;SDS011;70521;47.468;19.306;2023-09-08T05:40:24;7.60;;;7.00;;
81036;SDS011;70521;47.468;19.306;2023-09-08T05:43:25;8.30;;;6.85;;
81036;SDS011;70521;47.468;19.306;2023-09-08T05:46:26;7.90;;;6.70;;
81036;SDS011;70521;47.468;19.306;2023-09-08T05:49:28;8.50;;;6.95;;
81036;SDS011;70521;47.468;19.306;2023-09-08T05:52:29;7.38;;;6.68;;
81036;SDS011;70521;47.468;19.306;2023-09-08T05:55:30;7.15;;;6.40;;
81036;SDS011;70521;47.468;19.306;2023-09-08T05:58:32;7.57;;;6.97;;
81036;SDS011;70521;47.468;19.306;2023-09-08T06:01:33;8.00;;;6.30;;
81036;SDS011;70521;47.468;19.306;2023-09-08T06:04:35;7.72;;;6.78;;
81036;SDS011;70521;47.468;19.306;2023-09-08T06:07:37;6.75;;;6.15;;
81036;SDS011;70521;47.468;19.306;2023-09-08T06:10:38;7.07;;;6.43;;
81036;SDS011;70521;47.468;19.306;2023-09-08T06:13:40;8.73;;;6.25;;
81036;SDS011;70521;47.468;19.306;2023-09-08T06:16:41;7.75;;;6.40;;
81036;SDS011;70521;47.468;19.306;2023-09-08T06:19:43;6.65;;;6.07;;
81036;SDS011;70521;47.468;19.306;2023-09-08T06:22:44;8.40;;;6.57;;
81036;SDS011;70521;47.468;19.306;2023-09-08T06:25:46;7.53;;;6.82;;
81036;SDS011;70521;47.468;19.306;2023-09-08T06:28:47;7.47;;;6.78;;
81036;SDS011;70521;47.468;19.306;2023-09-08T06:31:49;6.68;;;6.13;;
81036;SDS011;70521;47.468;19.306;2023-09-08T06:34:50;6.47;;;5.75;;
81036;SDS011;70521;47.468;19.306;2023-09-08T06:37:51;7.15;;;5.85;;
81036;SDS011;70521;47.468;19.306;2023-09-08T06:40:52;7.82;;;6.13;;
81036;SDS011;70521;47.468;19.306;2023-09-08T06:43:55;6.80;;;6.15;;
81036;SDS011;70521;47.468;19.306;2023-09-08T06:46:57;7.50;;;6.82;;
81036;SDS011;70521;47.468;19.306;2023-09-08T06:50:00;9.40;;;6.78;;
81036;SDS011;70521;47.468;19.306;2023-09-08T06:53:01;7.30;;;6.57;;
81036;SDS011;70521;47.468;19.306;2023-09-08T06:56:03;6.72;;;6.13;;
81036;SDS011;70521;47.468;19.306;2023-09-08T06:59:06;7.75;;;7.07;;
81036;SDS011;70521;47.468;19.306;2023-09-08T07:02:08;7.10;;;6.13;;
81036;SDS011;70521;47.468;19.306;2023-09-08T07:05:09;7.72;;;7.03;;
81036;SDS011;70521;47.468;19.306;2023-09-08T07:08:13;7.70;;;5.95;;
81036;SDS011;70521;47.468;19.306;2023-09-08T07:11:15;6.38;;;5.78;;
81036;SDS011;70521;47.468;19.306;2023-09-08T07:14:17;7.03;;;6.38;;
81036;SDS011;70521;47.468;19.306;2023-09-08T07:17:18;6.50;;;5.68;;
81036;SDS011;70521;47.468;19.306;2023-09-08T07:20:19;7.63;;;6.38;;
81036;SDS011;70521;47.468;19.306;2023-09-08T07:23:20;8.02;;;7.22;;
81036;SDS011;70521;47.468;19.306;2023-09-08T07:26:22;6.53;;;5.90;;
81036;SDS011;70521;47.468;19.306;2023-09-08T07:29:23;6.95;;;6.35;;
81036;SDS011;70521;47.468;19.306;2023-09-08T07:32:25;6.72;;;6.03;;
81036;SDS011;70521;47.468;19.306;2023-09-08T07:35:26;9.27;;;6.72;;
81036;SDS011;70521;47.468;19.306;2023-09-08T07:38:27;7.70;;;6.97;;
81036;SDS011;70521;47.468;19.306;2023-09-08T07:41:28;8.63;;;6.68;;
81036;SDS011;70521;47.468;19.306;2023-09-08T07:44:29;6.95;;;5.25;;
81036;SDS011;70521;47.468;19.306;2023-09-08T07:47:30;6.47;;;5.63;;
81036;SDS011;70521;47.468;19.306;2023-09-08T07:50:32;6.88;;;6.18;;
81036;SDS011;70521;47.468;19.306;2023-09-08T07:53:33;8.02;;;6.63;;
81036;SDS011;70521;47.468;19.306;2023-09-08T07:56:34;7.43;;;6.25;;
81036;SDS011;70521;47.468;19.306;2023-09-08T07:59:39;6.78;;;5.93;;
81036;SDS011;70521;47.468;19.306;2023-09-08T08:02:48;6.68;;;6.07;;
81036;SDS011;70521;47.468;19.306;2023-09-08T08:05:49;6.05;;;5.55;;
81036;SDS011;70521;47.468;19.306;2023-09-08T08:08:50;5.93;;;5.40;;
81036;SDS011;70521;47.468;19.306;2023-09-08T08:12:11;7.53;;;5.47;;
81036;SDS011;70521;47.468;19.306;2023-09-08T08:15:12;6.13;;;5.55;;
81036;SDS011;70521;47.468;19.306;2023-09-08T08:18:13;6.72;;;6.13;;
81036;SDS011;70521;47.468;19.306;2023-09-08T08:21:15;6.20;;;5.47;;
81036;SDS011;70521;47.468;19.306;2023-09-08T08:24:16;5.43;;;5.03;;
81036;SDS011;70521;47.468;19.306;2023-09-08T08:27:17;5.72;;;5.13;;
81036;SDS011;70521;47.468;19.306;2023-09-08T08:30:18;7.97;;;4.90;;
81036;SDS011;70521;47.468;19.306;2023-09-08T08:33:19;5.53;;;5.00;;
81036;SDS011;70521;47.468;19.306;2023-09-08T08:36:21;6.55;;;4.30;;
81036;SDS011;70521;47.468;19.306;2023-09-08T08:39:22;5.05;;;4.60;;
81036;SDS011;70521;47.468;19.306;2023-09-08T08:42:24;4.65;;;4.20;;
81036;SDS011;70521;47.468;19.306;2023-09-08T08:45:31;4.80;;;4.30;;
81036;SDS011;70521;47.468;19.306;2023-09-08T08:48:33;5.15;;;4.20;;
81036;SDS011;70521;47.468;19.306;2023-09-08T08:51:34;6.15;;;4.95;;
81036;SDS011;70521;47.468;19.306;2023-09-08T08:54:37;5.38;;;4.70;;
81036;SDS011;70521;47.468;19.306;2023-09-08T08:57:39;4.72;;;4.25;;
81036;SDS011;70521;47.468;19.306;2023-09-08T09:00:40;5.97;;;4.00;;
81036;SDS011;70521;47.468;19.306;2023-09-08T09:03:42;4.90;;;4.25;;
81036;SDS011;70521;47.468;19.306;2023-09-08T09:06:44;5.60;;;3.83;;
81036;SDS011;70521;47.468;19.306;2023-09-08T09:09:46;4.97;;;4.50;;
81036;SDS011;70521;47.468;19.306;2023-09-08T09:12:47;5.57;;;4.35;;
81036;SDS011;70521;47.468;19.306;2023-09-08T09:15:48;5.38;;;4.10;;
81036;SDS011;70521;47.468;19.306;2023-09-08T09:18:57;4.13;;;3.70;;
81036;SDS011;70521;47.468;19.306;2023-09-08T09:21:58;4.68;;;4.10;;
81036;SDS011;70521;47.468;19.306;2023-09-08T09:24:59;5.28;;;4.30;;
81036;SDS011;70521;47.468;19.306;2023-09-08T09:28:01;4.65;;;4.20;;
81036;SDS011;70521;47.468;19.306;2023-09-08T09:31:03;4.78;;;3.85;;
81036;SDS011;70521;47.468;19.306;2023-09-08T09:34:04;4.90;;;4.28;;
81036;SDS011;70521;47.468;19.306;2023-09-08T09:37:06;8.38;;;4.93;;
81036;SDS011;70521;47.468;19.306;2023-09-08T09:40:07;4.80;;;4.30;;
81036;SDS011;70521;47.468;19.306;2023-09-08T09:43:11;4.65;;;4.13;;
81036;SDS011;70521;47.468;19.306;2023-09-08T09:46:12;4.60;;;4.20;;
81036;SDS011;70521;47.468;19.306;2023-09-08T09:49:13;4.63;;;3.92;;
81036;SDS011;70521;47.468;19.306;2023-09-08T09:52:20;5.43;;;4.18;;
81036;SDS011;70521;47.468;19.306;2023-09-08T09:55:21;4.55;;;3.60;;
81036;SDS011;70521;47.468;19.306;2023-09-08T09:58:22;5.22;;;3.78;;
81036;SDS011;70521;47.468;19.306;2023-09-08T10:01:24;4.05;;;3.63;;
81036;SDS011;70521;47.468;19.306;2023-09-08T10:04:25;3.85;;;3.42;;
81036;SDS011;70521;47.468;19.306;2023-09-08T10:07:27;3.90;;;3.45;;
81036;SDS011;70521;47.468;19.306;2023-09-08T10:10:29;5.55;;;4.28;;
81036;SDS011;70521;47.468;19.306;2023-09-08T10:13:31;4.93;;;3.70;;
81036;SDS011;70521;47.468;19.306;2023-09-08T10:16:34;4.30;;;3.55;;
81036;SDS011;70521;47.468;19.306;2023-09-08T10:19:35;4.43;;;3.08;;
81036;SDS011;70521;47.468;19.306;2023-09-08T10:22:42;4.75;;;3.88;;
81036;SDS011;70521;47.468;19.306;2023-09-08T10:25:44;3.72;;;3.40;;
81036;SDS011;70521;47.468;19.306;2023-09-08T10:28:50;4.57;;;4.18;;
81036;SDS011;70521;47.468;19.306;2023-09-08T10:31:52;4.60;;;3.47;;
81036;SDS011;70521;47.468;19.306;2023-09-08T10:34:53;3.50;;;3.20;;
81036;SDS011;70521;47.468;19.306;2023-09-08T10:44:20;3.85;;;3.47;;
81036;SDS011;70521;47.468;19.306;2023-09-08T10:47:26;5.60;;;3.97;;
81036;SDS011;70521;47.468;19.306;2023-09-08T10:50:34;3.85;;;3.05;;
81036;SDS011;70521;47.468;19.306;2023-09-08T10:53:35;4.22;;;3.72;;
81036;SDS011;70521;47.468;19.306;2023-09-08T10:56:47;3.53;;;3.22;;
81036;SDS011;70521;47.468;19.306;2023-09-08T10:59:53;4.05;;;3.33;;
81036;SDS011;70521;47.468;19.306;2023-09-08T11:02:54;3.50;;;3.20;;
81036;SDS011;70521;47.468;19.306;2023-09-08T11:05:56;3.83;;;3.42;;
81036;SDS011;70521;47.468;19.306;2023-09-08T11:08:58;4.30;;;3.50;;
81036;SDS011;70521;47.468;19.306;2023-09-08T11:12:06;5.40;;;4.80;;
81036;SDS011;70521;47.468;19.306;2023-09-08T11:15:09;4.60;;;3.58;;
81036;SDS011;70521;47.468;19.306;2023-09-08T11:18:10;4.80;;;4.13;;
81036;SDS011;70521;47.468;19.306;2023-09-08T11:21:11;3.80;;;3.40;;
81036;SDS011;70521;47.468;19.306;2023-09-08T11:24:12;3.78;;;3.38;;
81036;SDS011;70521;47.468;19.306;2023-09-08T11:27:16;4.05;;;3.47;;
81036;SDS011;70521;47.468;19.306;2023-09-08T11:30:17;4.47;;;3.65;;
81036;SDS011;70521;47.468;19.306;2023-09-08T11:33:18;3.65;;;3.22;;
81036;SDS011;70521;47.468;19.306;2023-09-08T11:36:20;5.70;;;3.80;;
81036;SDS011;70521;47.468;19.306;2023-09-08T11:39:24;4.45;;;3.67;;
81036;SDS011;70521;47.468;19.306;2023-09-08T11:42:26;5.22;;;3.53;;
81036;SDS011;70521;47.468;19.306;2023-09-08T11:45:28;5.05;;;3.70;;
81036;SDS011;70521;47.468;19.306;2023-09-08T11:48:29;3.53;;;3.22;;
81036;SDS011;70521;47.468;19.306;2023-09-08T11:51:30;3.97;;;3.50;;
81036;SDS011;70521;47.468;19.306;2023-09-08T11:54:31;3.75;;;3.42;;
81036;SDS011;70521;47.468;19.306;2023-09-08T11:57:32;4.70;;;3.67;;
81036;SDS011;70521;47.468;19.306;2023-09-08T12:00:34;4.22;;;3.85;;
81036;SDS011;70521;47.468;19.306;2023-09-08T12:03:35;3.97;;;3.53;;
81036;SDS011;70521;47.468;19.306;2023-09-08T12:06:52;4.22;;;3.80;;
81036;SDS011;70521;47.468;19.306;2023-09-08T12:09:53;3.92;;;3.63;;
81036;SDS011;70521;47.468;19.306;2023-09-08T12:12:54;5.03;;;4.13;;
81036;SDS011;70521;47.468;19.306;2023-09-08T12:18:59;4.45;;;3.90;;
81036;SDS011;70521;47.468;19.306;2023-09-08T12:22:01;5.65;;;3.90;;
81036;SDS011;70521;47.468;19.306;2023-09-08T12:25:07;5.60;;;4.15;;
81036;SDS011;70521;47.468;19.306;2023-09-08T12:28:08;5.10;;;4.60;;
81036;SDS011;70521;47.468;19.306;2023-09-08T12:31:13;4.88;;;3.95;;
81036;SDS011;70521;47.468;19.306;2023-09-08T12:34:14;5.57;;;4.53;;
81036;SDS011;70521;47.468;19.306;2023-09-08T12:37:19;4.95;;;4.45;;
81036;SDS011;70521;47.468;19.306;2023-09-08T12:43:21;5.03;;;4.55;;
81036;SDS011;70521;47.468;19.306;2023-09-08T12:46:22;5.38;;;4.13;;
81036;SDS011;70521;47.468;19.306;2023-09-08T12:49:24;4.32;;;3.70;;
81036;SDS011;70521;47.468;19.306;2023-09-08T12:52:25;4.57;;;3.75;;
81036;SDS011;70521;47.468;19.306;2023-09-08T12:55:26;5.35;;;4.15;;
81036;SDS011;70521;47.468;19.306;2023-09-08T12:58:28;5.35;;;4.47;;
81036;SDS011;70521;47.468;19.306;2023-09-08T13:01:29;4.20;;;3.85;;
81036;SDS011;70521;47.468;19.306;2023-09-08T13:04:30;4.43;;;3.88;;
81036;SDS011;70521;47.468;19.306;2023-09-08T13:07:31;4.65;;;3.70;;
81036;SDS011;70521;47.468;19.306;2023-09-08T13:10:33;4.75;;;3.60;;
81036;SDS011;70521;47.468;19.306;2023-09-08T13:13:34;4.22;;;3.83;;
81036;SDS011;70521;47.468;19.306;2023-09-08T13:16:35;6.03;;;3.50;;
81036;SDS011;70521;47.468;19.306;2023-09-08T13:19:36;4.82;;;3.92;;
81036;SDS011;70521;47.468;19.306;2023-09-08T13:22:38;4.25;;;3.72;;
81036;SDS011;70521;47.468;19.306;2023-09-08T13:25:39;5.25;;;3.92;;
81036;SDS011;70521;47.468;19.306;2023-09-08T13:28:42;5.75;;;4.20;;
81036;SDS011;70521;47.468;19.306;2023-09-08T13:31:44;3.97;;;3.53;;
81036;SDS011;70521;47.468;19.306;2023-09-08T13:34:45;4.45;;;4.05;;
81036;SDS011;70521;47.468;19.306;2023-09-08T13:37:47;4.78;;;4.03;;
81036;SDS011;70521;47.468;19.306;2023-09-08T13:40:48;4.85;;;4.38;;
81036;SDS011;70521;47.468;19.306;2023-09-08T13:43:49;4.20;;;3.80;;
81036;SDS011;70521;47.468;19.306;2023-09-08T13:46:50;4.55;;;4.07;;
81036;SDS011;70521;47.468;19.306;2023-09-08T13:49:51;5.35;;;4.18;;
81036;SDS011;70521;47.468;19.306;2023-09-08T13:52:52;5.22;;;4.70;;
81036;SDS011;70521;47.468;19.306;2023-09-08T13:55:53;4.78;;;4.07;;
81036;SDS011;70521;47.468;19.306;2023-09-08T13:58:54;4.40;;;4.00;;
81036;SDS011;70521;47.468;19.306;2023-09-08T14:01:55;4.50;;;4.05;;
81036;SDS011;70521;47.468;19.306;2023-09-08T14:04:58;4.28;;;3.88;;
81036;SDS011;70521;47.468;19.306;2023-09-08T14:07:59;4.75;;;4.35;;
81036;SDS011;70521;47.468;19.306;2023-09-08T14:11:00;5.43;;;4.90;;
81036;SDS011;70521;47.468;19.306;2023-09-08T14:14:01;5.70;;;4.18;;
81036;SDS011;70521;47.468;19.306;2023-09-08T14:17:02;4.10;;;3.67;;
81036;SDS011;70521;47.468;19.306;2023-09-08T14:20:03;4.13;;;3.72;;
81036;SDS011;70521;47.468;19.306;2023-09-08T14:23:06;7.10;;;4.65;;
81036;SDS011;70521;47.468;19.306;2023-09-08T14:26:09;6.65;;;4.55;;
81036;SDS011;70521;47.468;19.306;2023-09-08T14:29:10;5.30;;;4.15;;
81036;SDS011;70521;47.468;19.306;2023-09-08T14:32:11;5.38;;;4.60;;
81036;SDS011;70521;47.468;19.306;2023-09-08T14:35:12;4.95;;;4.10;;
81036;SDS011;70521;47.468;19.306;2023-09-08T14:38:13;4.38;;;3.97;;
81036;SDS011;70521;47.468;19.306;2023-09-08T14:41:17;5.45;;;4.22;;
81036;SDS011;70521;47.468;19.306;2023-09-08T14:44:18;4.95;;;4.50;;
81036;SDS011;70521;47.468;19.306;2023-09-08T14:47:20;4.97;;;4.57;;
81036;SDS011;70521;47.468;19.306;2023-09-08T14:50:21;5.05;;;4.22;;
81036;SDS011;70521;47.468;19.306;2023-09-08T14:53:23;5.53;;;4.55;;
81036;SDS011;70521;47.468;19.306;2023-09-08T14:56:24;5.65;;;4.97;;
81036;SDS011;70521;47.468;19.306;2023-09-08T14:59:25;6.10;;;5.22;;
81036;SDS011;70521;47.468;19.306;2023-09-08T15:02:26;5.47;;;4.53;;
81036;SDS011;70521;47.468;19.306;2023-09-08T15:05:27;5.68;;;5.18;;
81036;SDS011;70521;47.468;19.306;2023-09-08T15:08:28;5.82;;;4.60;;
81036;SDS011;70521;47.468;19.306;2023-09-08T15:11:29;5.85;;;4.20;;
81036;SDS011;70521;47.468;19.306;2023-09-08T15:14:30;4.97;;;4.47;;
81036;SDS011;70521;47.468;19.306;2023-09-08T15:17:31;4.78;;;4.38;;
81036;SDS011;70521;47.468;19.306;2023-09-08T15:20:32;5.05;;;4.55;;
81036;SDS011;70521;47.468;19.306;2023-09-08T15:23:34;6.28;;;4.82;;
81036;SDS011;70521;47.468;19.306;2023-09-08T15:26:36;6.45;;;4.45;;
81036;SDS011;70521;47.468;19.306;2023-09-08T15:29:37;4.72;;;4.25;;
81036;SDS011;70521;47.468;19.306;2023-09-08T15:32:38;5.38;;;4.70;;
81036;SDS011;70521;47.468;19.306;2023-09-08T15:35:39;5.20;;;4.60;;
81036;SDS011;70521;47.468;19.306;2023-09-08T15:38:41;5.00;;;4.38;;
81036;SDS011;70521;47.468;19.306;2023-09-08T15:41:42;5.32;;;4.38;;
81036;SDS011;70521;47.468;19.306;2023-09-08T15:44:44;5.75;;;4.80;;
81036;SDS011;70521;47.468;19.306;2023-09-08T15:47:45;5.10;;;4.68;;
81036;SDS011;70521;47.468;19.306;2023-09-08T15:50:46;5.68;;;4.65;;
81036;SDS011;70521;47.468;19.306;2023-09-08T15:53:47;4.38;;;3.97;;
81036;SDS011;70521;47.468;19.306;2023-09-08T15:56:48;4.22;;;3.83;;
81036;SDS011;70521;47.468;19.306;2023-09-08T15:59:49;4.60;;;4.20;;
81036;SDS011;70521;47.468;19.306;2023-09-08T16:02:51;4.63;;;3.85;;
81036;SDS011;70521;47.468;19.306;2023-09-08T16:05:52;7.45;;;4.45;;
81036;SDS011;70521;47.468;19.306;2023-09-08T16:08:53;4.90;;;4.00;;
81036;SDS011;70521;47.468;19.306;2023-09-08T16:11:54;5.13;;;4.60;;
81036;SDS011;70521;47.468;19.306;2023-09-08T16:14:55;4.57;;;4.03;;
81036;SDS011;70521;47.468;19.306;2023-09-08T16:17:56;4.53;;;4.13;;
81036;SDS011;70521;47.468;19.306;2023-09-08T16:20:58;5.18;;;4.63;;
81036;SDS011;70521;47.468;19.306;2023-09-08T16:23:59;5.80;;;4.82;;
81036;SDS011;70521;47.468;19.306;2023-09-08T16:27:00;6.60;;;5.30;;
81036;SDS011;70521;47.468;19.306;2023-09-08T16:30:04;4.40;;;4.00;;
81036;SDS011;70521;47.468;19.306;2023-09-08T16:33:05;4.40;;;3.85;;
81036;SDS011;70521;47.468;19.306;2023-09-08T16:36:06;6.38;;;4.32;;
81036;SDS011;70521;47.468;19.306;2023-09-08T16:39:08;5.30;;;4.53;;
81036;SDS011;70521;47.468;19.306;2023-09-08T16:42:09;4.50;;;4.10;;
81036;SDS011;70521;47.468;19.306;2023-09-08T16:45:13;6.43;;;4.75;;
81036;SDS011;70521;47.468;19.306;2023-09-08T16:48:14;5.15;;;4.68;;
81036;SDS011;70521;47.468;19.306;2023-09-08T16:51:16;4.68;;;4.28;;
81036;SDS011;70521;47.468;19.306;2023-09-08T16:54:17;5.25;;;4.53;;
81036;SDS011;70521;47.468;19.306;2023-09-08T16:57:18;4.82;;;4.32;;
81036;SDS011;70521;47.468;19.306;2023-09-08T17:00:20;6.57;;;4.93;;
81036;SDS011;70521;47.468;19.306;2023-09-08T17:03:22;4.82;;;4.35;;
81036;SDS011;70521;47.468;19.306;2023-09-08T17:06:23;4.93;;;4.43;;
81036;SDS011;70521;47.468;19.306;2023-09-08T17:09:24;5.93;;;4.43;;
81036;SDS011;70521;47.468;19.306;2023-09-08T17:12:27;6.03;;;4.65;;
81036;SDS011;70521;47.468;19.306;2023-09-08T17:15:28;6.70;;;4.43;;
81036;SDS011;70521;47.468;19.306;2023-09-08T17:18:31;5.35;;;4.38;;
81036;SDS011;70521;47.468;19.306;2023-09-08T17:21:41;5.72;;;4.30;;
81036;SDS011;70521;47.468;19.306;2023-09-08T17:24:42;6.03;;;4.25;;
81036;SDS011;70521;47.468;19.306;2023-09-08T17:27:43;5.25;;;4.75;;
81036;SDS011;70521;47.468;19.306;2023-09-08T17:30:45;4.70;;;4.15;;
81036;SDS011;70521;47.468;19.306;2023-09-08T17:33:46;6.32;;;4.85;;
81036;SDS011;70521;47.468;19.306;2023-09-08T17:36:54;5.82;;;5.20;;
81036;SDS011;70521;47.468;19.306;2023-09-08T17:40:01;5.45;;;4.22;;
81036;SDS011;70521;47.468;19.306;2023-09-08T17:43:02;6.95;;;4.93;;
81036;SDS011;70521;47.468;19.306;2023-09-08T17:46:03;7.05;;;5.13;;
81036;SDS011;70521;47.468;19.306;2023-09-08T17:49:04;6.65;;;5.45;;
81036;SDS011;70521;47.468;19.306;2023-09-08T17:52:05;5.88;;;5.20;;
81036;SDS011;70521;47.468;19.306;2023-09-08T17:55:06;5.78;;;5.18;;
81036;SDS011;70521;47.468;19.306;2023-09-08T17:58:07;8.55;;;6.00;;
81036;SDS011;70521;47.468;19.306;2023-09-08T18:01:08;7.35;;;5.68;;
81036;SDS011;70521;47.468;19.306;2023-09-08T18:04:09;6.13;;;4.80;;
81036;SDS011;70521;47.468;19.306;2023-09-08T18:07:10;5.85;;;5.28;;
81036;SDS011;70521;47.468;19.306;2023-09-08T18:10:11;6.40;;;5.30;;
81036;SDS011;70521;47.468;19.306;2023-09-08T18:13:13;5.53;;;4.45;;
81036;SDS011;70521;47.468;19.306;2023-09-08T18:16:15;6.13;;;5.00;;